Time;durP1;ratioP1;P1;durP2;ratioP2;P2;SDS_P1;SDS_P2;PMS_P1;PMS_P2;Temp;Humidity;BMP_temperature;BMP_pressure;BME280_temperature;BME280_humidity;BME280_pressure;Samples;Min_cycle;Max_cycle;Signal;HPM_P1;HPM_P2
2022/10/11 00:01:01;;;;;;;25.17;3.30;;;7.00;99.90;;;;;;4989228;28;217176;-75
2022/10/11 00:03:27;;;;;;;20.45;3.45;;;6.90;99.90;;;;;;5025323;28;20071;-74
2022/10/11 00:05:53;;;;;;;23.02;3.35;;;6.90;99.90;;;;;;4996815;28;214516;-75
2022/10/11 00:08:20;;;;;;;19.52;3.00;;;6.90;99.90;;;;;;5036861;28;20514;-74
2022/10/11 00:10:56;;;;;;;22.17;3.17;;;6.90;99.90;;;;;;4991855;28;211535;-75
2022/10/11 00:13:22;;;;;;;18.67;2.92;;;6.90;99.90;;;;;;5026876;28;20060;-75
2022/10/11 00:15:48;;;;;;;18.73;3.15;;;6.90;99.90;;;;;;4974721;28;171839;-75
2022/10/11 00:18:14;;;;;;;25.38;3.63;;;6.90;99.90;;;;;;5020230;28;20056;-75
2022/10/11 00:20:40;;;;;;;24.50;3.58;;;6.80;99.90;;;;;;4975697;28;216375;-74
2022/10/11 00:23:06;;;;;;;22.58;3.45;;;6.90;99.90;;;;;;5026685;28;20415;-75
2022/10/11 00:25:33;;;;;;;19.45;3.38;;;6.80;99.90;;;;;;4980983;28;207006;-74
2022/10/11 00:27:59;;;;;;;19.73;3.10;;;6.80;99.90;;;;;;5020625;28;20068;-75
2022/10/11 00:30:25;;;;;;;18.27;3.15;;;6.80;99.90;;;;;;4982237;28;165413;-74
2022/10/11 00:32:52;;;;;;;21.73;2.90;;;6.80;99.90;;;;;;5022728;28;20418;-75
2022/10/11 00:35:18;;;;;;;23.80;3.20;;;6.80;99.90;;;;;;4986999;28;90603;-76
2022/10/11 00:37:45;;;;;;;20.85;3.35;;;6.80;99.90;;;;;;5027208;28;20041;-75
2022/10/11 00:40:17;;;;;;;21.80;2.95;;;6.80;99.90;;;;;;4984535;28;211713;-74
2022/10/11 00:42:43;;;;;;;24.65;3.40;;;6.80;99.90;;;;;;5034903;28;20048;-75
2022/10/11 00:45:31;;;;;;;15.82;2.85;;;6.80;99.90;;;;;;4984120;28;244231;-75
2022/10/11 00:48:08;;;;;;;26.98;3.35;;;6.80;99.90;;;;;;5034707;28;20458;-74
2022/10/11 00:50:36;;;;;;;14.18;2.67;;;6.80;99.90;;;;;;4978514;28;212604;-74
2022/10/11 00:53:07;;;;;;;18.98;2.90;;;6.80;99.90;;;;;;5025312;28;20060;-75
2022/10/11 00:55:39;;;;;;;18.08;2.60;;;6.70;99.90;;;;;;4982005;28;216206;-75
2022/10/11 00:58:05;;;;;;;16.73;2.85;;;6.70;99.90;;;;;;5017082;28;20454;-76
2022/10/11 01:00:32;;;;;;;23.02;3.13;;;6.70;99.90;;;;;;4994109;28;223147;-74
2022/10/11 01:02:59;;;;;;;17.63;2.67;;;6.60;99.90;;;;;;5031966;28;20045;-76
2022/10/11 01:05:25;;;;;;;16.92;2.75;;;6.60;99.90;;;;;;4975006;28;222646;-75
2022/10/11 01:07:52;;;;;;;16.83;2.65;;;6.60;99.90;;;;;;5028910;28;20406;-75
2022/10/11 01:10:19;;;;;;;20.60;2.60;;;6.60;99.90;;;;;;4991143;28;219614;-76
2022/10/11 01:13:03;;;;;;;18.20;2.50;;;6.60;99.90;;;;;;5016611;28;20404;-76
2022/10/11 01:15:42;;;;;;;21.00;2.70;;;6.60;99.90;;;;;;4988360;28;205322;-75
2022/10/11 01:18:15;;;;;;;17.88;2.67;;;6.60;99.90;;;;;;5024262;28;20573;-74
2022/10/11 01:20:50;;;;;;;21.35;3.10;;;6.60;99.90;;;;;;4987758;28;138080;-75
2022/10/11 01:23:38;;;;;;;20.98;2.55;;;6.50;99.90;;;;;;5023869;28;20056;-75
2022/10/11 01:26:39;;;;;;;17.42;2.80;;;6.50;99.90;;;;;;4967015;28;208251;-75
2022/10/11 01:29:05;;;;;;;;;;;6.50;99.90;;;;;;5031184;28;20037;-75
2022/10/11 01:31:43;;;;;;;20.42;2.50;;;6.50;99.90;;;;;;4961745;28;205489;-75
2022/10/11 01:34:09;;;;;;;17.83;2.60;;;6.50;99.90;;;;;;5024484;28;20064;-75
2022/10/11 01:36:47;;;;;;;17.48;2.40;;;6.50;99.90;;;;;;4984467;28;206083;-74
2022/10/11 01:39:29;;;;;;;17.20;2.78;;;6.50;99.90;;;;;;5015819;28;209827;-73
2022/10/11 01:41:58;;;;;;;17.33;2.33;;;6.50;99.90;;;;;;4969834;28;211244;-75
2022/10/11 01:44:25;;;;;;;21.08;2.85;;;6.50;99.90;;;;;;4981474;28;209621;-73
2022/10/11 01:46:52;;;;;;;17.42;2.58;;;6.50;99.90;;;;;;5013502;28;20049;-74
2022/10/11 01:49:19;;;;;;;16.83;2.67;;;6.50;99.90;;;;;;4979526;28;228247;-73
2022/10/11 01:51:49;;;;;;;14.07;2.35;;;6.50;99.90;;;;;;5029390;28;20048;-75
2022/10/11 01:54:18;;;;;;;17.13;2.72;;;6.50;99.90;;;;;;5001408;28;212510;-75
2022/10/11 01:56:56;;;;;;;16.88;2.55;;;6.40;99.90;;;;;;5003741;28;206014;-74
2022/10/11 01:59:34;;;;;;;24.17;2.75;;;6.40;99.90;;;;;;4983764;28;211956;-75
2022/10/11 02:02:08;;;;;;;19.73;3.05;;;6.40;99.90;;;;;;5010474;28;20060;-75
2022/10/11 02:04:56;;;;;;;21.33;2.85;;;6.40;99.90;;;;;;4978411;28;210253;-74
2022/10/11 02:07:48;;;;;;;14.93;2.67;;;6.40;99.90;;;;;;5011656;28;20041;-75
2022/10/11 02:10:25;;;;;;;19.73;2.72;;;6.40;99.90;;;;;;4980115;28;212898;-75
2022/10/11 02:13:34;;;;;;;24.83;3.42;;;6.30;99.90;;;;;;5004137;28;20073;-74
2022/10/11 02:16:06;;;;;;;17.35;2.85;;;6.30;99.90;;;;;;4905639;28;219915;-74
2022/10/11 02:18:38;;;;;;;19.65;2.60;;;6.30;99.90;;;;;;4977436;28;20051;-74
2022/10/11 02:21:08;;;;;;;18.85;2.80;;;6.30;99.90;;;;;;4934353;28;206824;-75
2022/10/11 02:23:41;;;;;;;18.25;2.70;;;6.30;99.90;;;;;;4963643;28;20065;-75
2022/10/11 02:26:10;;;;;;;17.10;2.63;;;6.20;99.90;;;;;;4912474;28;206891;-76
2022/10/11 02:28:40;;;;;;;18.55;2.90;;;6.20;99.90;;;;;;4979277;28;20050;-75
2022/10/11 02:31:08;;;;;;;21.23;2.60;;;6.20;99.90;;;;;;4926022;28;205985;-75
2022/10/11 02:33:51;;;;;;;17.05;2.40;;;6.10;99.90;;;;;;4969081;28;20060;-75
2022/10/11 02:36:29;;;;;;;17.20;2.55;;;6.10;99.90;;;;;;4909628;28;179566;-74
2022/10/11 02:38:58;;;;;;;13.82;2.90;;;6.10;99.90;;;;;;4966040;28;20066;-74
2022/10/11 02:41:37;;;;;;;19.85;2.60;;;6.10;99.90;;;;;;4931518;28;206689;-75
2022/10/11 02:44:16;;;;;;;19.70;2.25;;;6.00;99.90;;;;;;4980423;28;20062;-74
2022/10/11 02:46:44;;;;;;;12.80;2.33;;;6.00;99.90;;;;;;4933844;28;209025;-75
2022/10/11 02:49:11;;;;;;;19.88;2.85;;;5.90;99.90;;;;;;4979612;28;20073;-74
2022/10/11 02:51:38;;;;;;;15.52;2.50;;;5.90;99.90;;;;;;4923834;28;208083;-74
2022/10/11 02:54:04;;;;;;;27.05;2.90;;;5.80;99.90;;;;;;5020819;28;20049;-75
2022/10/11 02:56:30;;;;;;;17.70;2.75;;;5.80;99.90;;;;;;4982545;28;206191;-75
2022/10/11 02:58:56;;;;;;;18.08;2.70;;;5.80;99.90;;;;;;5024224;28;20052;-75
2022/10/11 03:01:23;;;;;;;18.08;2.60;;;5.80;99.90;;;;;;4981150;28;207576;-74
2022/10/11 03:03:49;;;;;;;20.42;2.95;;;5.80;99.90;;;;;;5027864;28;20049;-75
2022/10/11 03:06:15;;;;;;;21.98;2.80;;;5.80;99.90;;;;;;4983568;28;209833;-75
2022/10/11 03:08:41;;;;;;;18.20;2.80;;;5.80;99.90;;;;;;5020478;28;20062;-75
2022/10/11 03:11:07;;;;;;;14.05;2.45;;;5.90;99.90;;;;;;4996765;28;212874;-75
2022/10/11 03:13:34;;;;;;;18.73;2.22;;;5.80;99.90;;;;;;5023377;28;20705;-74
2022/10/11 03:16:00;;;;;;;18.48;2.83;;;5.80;99.90;;;;;;4988147;28;209306;-75
2022/10/11 03:18:26;;;;;;;19.10;2.97;;;5.70;99.90;;;;;;5021579;28;20057;-74
2022/10/11 03:20:53;;;;;;;17.75;2.75;;;5.70;99.90;;;;;;4979667;28;210993;-74
2022/10/11 03:23:19;;;;;;;24.70;2.85;;;5.70;99.90;;;;;;5025647;28;20054;-75
2022/10/11 03:25:45;;;;;;;19.98;2.50;;;5.70;99.90;;;;;;4986312;28;190182;-74
2022/10/11 03:28:11;;;;;;;19.02;2.55;;;5.80;99.90;;;;;;5024743;28;20054;-75
2022/10/11 03:30:38;;;;;;;18.75;2.90;;;5.80;99.90;;;;;;4963711;28;228582;-75
2022/10/11 03:33:04;;;;;;;13.10;2.35;;;5.80;99.90;;;;;;5022617;28;20042;-75
2022/10/11 03:35:30;;;;;;;20.73;3.13;;;5.80;99.90;;;;;;4979789;28;213989;-75
2022/10/11 03:37:56;;;;;;;18.48;2.95;;;5.80;99.90;;;;;;5023280;28;20053;-75
2022/10/11 03:40:22;;;;;;;19.80;2.67;;;5.80;99.90;;;;;;4982299;28;214068;-74
2022/10/11 03:42:48;;;;;;;21.58;2.92;;;5.80;99.90;;;;;;5021966;28;20061;-75
2022/10/11 03:45:14;;;;;;;17.88;2.28;;;5.80;99.90;;;;;;4945660;28;209913;-74
2022/10/11 03:47:40;;;;;;;17.48;3.03;;;5.80;99.90;;;;;;5013088;28;20057;-74
2022/10/11 03:50:08;;;;;;;19.05;2.78;;;5.80;99.90;;;;;;4985434;28;190690;-74
2022/10/11 03:52:35;;;;;;;16.90;2.72;;;5.80;99.90;;;;;;5031020;28;20052;-75
2022/10/11 03:55:02;;;;;;;19.45;2.90;;;5.80;99.90;;;;;;4980935;28;211539;-75
2022/10/11 03:57:29;;;;;;;18.80;2.72;;;5.90;99.90;;;;;;5025575;28;20053;-75
2022/10/11 03:59:55;;;;;;;16.05;2.95;;;5.90;99.90;;;;;;4977406;28;207123;-75
2022/10/11 04:02:21;;;;;;;17.92;2.70;;;5.80;99.90;;;;;;5039232;28;20053;-75
2022/10/11 04:04:47;;;;;;;18.02;2.53;;;5.80;99.90;;;;;;4976469;28;208170;-75
2022/10/11 04:07:13;;;;;;;15.57;2.53;;;5.80;99.90;;;;;;5013712;28;20057;-75
2022/10/11 04:09:40;;;;;;;16.50;2.63;;;5.70;99.90;;;;;;4979401;28;201835;-75
2022/10/11 04:12:06;;;;;;;21.38;2.65;;;5.80;99.90;;;;;;5020387;28;20050;-74
2022/10/11 04:14:32;;;;;;;18.27;2.58;;;5.80;99.90;;;;;;4983823;28;210976;-74
2022/10/11 04:16:58;;;;;;;16.77;2.38;;;5.70;99.90;;;;;;5025070;28;20058;-75
2022/10/11 04:19:24;;;;;;;17.60;2.63;;;5.70;99.90;;;;;;4975880;28;228699;-73
2022/10/11 04:21:50;;;;;;;15.50;2.50;;;5.80;99.90;;;;;;5015079;28;20034;-75
2022/10/11 04:24:17;;;;;;;17.58;2.72;;;5.70;99.90;;;;;;4992359;28;212135;-73
2022/10/11 04:26:43;;;;;;;21.40;3.10;;;5.80;99.90;;;;;;5020112;28;20060;-73
2022/10/11 04:29:09;;;;;;;19.15;3.13;;;5.80;99.90;;;;;;5026437;28;20061;-75
2022/10/11 04:31:35;;;;;;;23.42;3.00;;;5.80;99.90;;;;;;4982453;28;210239;-75
2022/10/11 04:34:02;;;;;;;19.20;2.67;;;5.80;99.90;;;;;;5007521;28;20049;-75
2022/10/11 04:36:29;;;;;;;21.63;3.13;;;5.90;99.90;;;;;;4995625;28;209806;-75
2022/10/11 04:38:55;;;;;;;24.33;3.17;;;5.90;99.90;;;;;;5035058;28;20040;-74
2022/10/11 04:41:21;;;;;;;19.20;3.00;;;5.90;99.90;;;;;;4977731;28;221484;-74
2022/10/11 04:43:47;;;;;;;16.33;2.65;;;5.90;99.90;;;;;;5027724;28;20060;-74
2022/10/11 04:46:14;;;;;;;19.63;2.67;;;5.90;99.90;;;;;;4987327;28;207341;-75
2022/10/11 04:48:40;;;;;;;15.63;2.92;;;6.00;99.90;;;;;;5026344;28;20054;-74
2022/10/11 04:51:06;;;;;;;17.80;2.80;;;5.90;99.90;;;;;;4980539;28;223756;-75
2022/10/11 04:53:32;;;;;;;23.70;2.88;;;5.90;99.90;;;;;;5024919;28;20428;-75
2022/10/11 04:56:04;;;;;;;16.80;2.60;;;5.90;99.90;;;;;;4987915;28;203724;-74
2022/10/11 04:58:32;;;;;;;18.10;2.70;;;5.90;99.90;;;;;;5030354;28;20076;-75
2022/10/11 05:00:58;;;;;;;20.25;2.60;;;5.90;99.90;;;;;;4964314;28;192710;-77
2022/10/11 05:03:25;;;;;;;19.30;2.53;;;5.90;99.90;;;;;;5029454;28;20434;-75
2022/10/11 05:05:52;;;;;;;18.20;3.00;;;5.90;99.90;;;;;;4964127;28;201816;-75
2022/10/11 05:08:18;;;;;;;26.98;3.20;;;6.00;99.90;;;;;;5015240;28;20483;-75
2022/10/11 05:11:15;;;;;;;20.88;2.78;;;6.00;99.90;;;;;;4971188;28;207739;-75
2022/10/11 05:13:41;;;;;;;17.13;2.58;;;6.10;99.90;;;;;;4964301;28;20047;-75
2022/10/11 05:16:07;;;;;;;16.65;2.83;;;6.00;99.90;;;;;;4913208;28;210480;-76
2022/10/11 05:18:34;;;;;;;17.08;3.03;;;6.10;99.90;;;;;;4968132;28;20070;-75
2022/10/11 05:21:02;;;;;;;18.50;2.80;;;6.10;99.90;;;;;;4898219;28;211948;-75
2022/10/11 05:23:30;;;;;;;15.48;2.78;;;6.20;99.90;;;;;;4952295;28;20066;-76
2022/10/11 05:25:57;;;;;;;17.45;3.00;;;6.30;99.90;;;;;;4895882;28;209820;-75
2022/10/11 05:28:23;;;;;;;19.27;2.95;;;6.30;99.90;;;;;;4949947;28;20193;-74
2022/10/11 05:30:49;;;;;;;16.00;2.50;;;6.30;99.90;;;;;;4918775;28;210190;-75
2022/10/11 05:33:15;;;;;;;18.52;3.10;;;6.40;99.90;;;;;;4972107;28;20050;-75
2022/10/11 05:35:42;;;;;;;21.70;3.13;;;6.40;99.90;;;;;;4902986;28;212449;-75
2022/10/11 05:38:08;;;;;;;18.58;2.85;;;6.40;99.90;;;;;;4946128;28;20516;-74
2022/10/11 05:40:36;;;;;;;19.52;2.65;;;6.50;99.90;;;;;;4894840;28;232202;-75
2022/10/11 05:43:03;;;;;;;20.92;2.63;;;6.50;99.90;;;;;;4961496;28;20046;-75
2022/10/11 05:45:31;;;;;;;14.05;2.63;;;6.50;99.90;;;;;;4932231;28;205038;-75
2022/10/11 05:47:57;;;;;;;20.55;2.70;;;6.60;99.90;;;;;;4938746;28;20701;-74
2022/10/11 05:50:24;;;;;;;15.85;2.30;;;6.60;99.90;;;;;;4952836;28;207143;-75
2022/10/11 05:52:50;;;;;;;19.00;2.83;;;6.60;99.90;;;;;;5035306;28;20104;-74
2022/10/11 05:55:16;;;;;;;18.15;2.78;;;6.60;99.90;;;;;;4982705;28;206452;-74
2022/10/11 05:57:43;;;;;;;20.35;2.67;;;6.60;99.90;;;;;;5021911;28;20068;-76
2022/10/11 06:00:09;;;;;;;22.02;2.70;;;6.60;99.90;;;;;;4975634;28;213552;-73
2022/10/11 06:02:35;;;;;;;19.92;2.85;;;6.60;99.90;;;;;;5015728;28;20430;-73
2022/10/11 06:05:02;;;;;;;21.05;2.95;;;6.60;99.90;;;;;;4977264;28;218149;-73
2022/10/11 06:07:28;;;;;;;20.75;3.30;;;6.60;99.90;;;;;;5019852;28;20056;-74
2022/10/11 06:09:54;;;;;;;19.08;3.08;;;6.60;99.90;;;;;;4981455;28;210735;-73
2022/10/11 06:12:20;;;;;;;16.77;3.13;;;6.50;99.90;;;;;;5023257;28;20061;-73
2022/10/11 06:14:47;;;;;;;18.27;3.17;;;6.50;99.90;;;;;;4972433;28;239206;-73
2022/10/11 06:17:15;;;;;;;20.60;3.58;;;6.50;99.90;;;;;;5013033;28;20061;-73
2022/10/11 06:19:41;;;;;;;17.83;2.83;;;6.50;99.90;;;;;;4983587;28;166115;-74
2022/10/11 06:22:10;;;;;;;20.40;2.80;;;6.50;99.90;;;;;;5021591;28;20061;-74
2022/10/11 06:24:36;;;;;;;20.48;3.45;;;6.50;99.90;;;;;;4972797;28;223116;-73
2022/10/11 06:27:02;;;;;;;19.20;2.80;;;6.50;99.90;;;;;;5001539;28;20053;-74
2022/10/11 06:29:28;;;;;;;16.08;3.58;;;6.50;99.90;;;;;;4960961;28;224399;-74
2022/10/11 06:31:55;;;;;;;20.63;3.13;;;6.50;99.90;;;;;;5008090;28;20056;-74
2022/10/11 06:34:21;;;;;;;20.83;3.65;;;6.50;99.90;;;;;;4969975;28;234805;-73
2022/10/11 06:36:47;;;;;;;20.83;3.53;;;6.50;99.90;;;;;;5011243;28;20053;-73
2022/10/11 06:39:13;;;;;;;20.15;3.00;;;6.50;99.90;;;;;;5014462;28;209413;-74
2022/10/11 06:41:39;;;;;;;15.07;3.00;;;6.60;99.90;;;;;;4987169;28;199972;-74
2022/10/11 06:44:05;;;;;;;15.82;3.50;;;6.60;99.90;;;;;;5024684;28;20045;-74
2022/10/11 06:46:32;;;;;;;20.77;3.33;;;6.60;99.90;;;;;;4981212;28;236739;-74
2022/10/11 06:48:58;;;;;;;26.00;6.45;;;6.60;99.90;;;;;;5027309;28;20053;-74
2022/10/11 06:51:24;;;;;;;21.63;4.45;;;6.60;99.90;;;;;;4969434;28;209392;-74
2022/10/11 06:53:54;;;;;;;16.77;3.17;;;6.60;99.90;;;;;;5026737;28;20076;-74
2022/10/11 06:56:20;;;;;;;17.27;3.30;;;6.70;99.90;;;;;;4977482;28;226355;-74
2022/10/11 06:58:46;;;;;;;20.45;2.90;;;6.70;99.90;;;;;;5028405;28;20050;-74
2022/10/11 07:01:19;;;;;;;18.50;3.60;;;6.70;99.90;;;;;;4959791;28;212118;-73
2022/10/11 07:03:45;;;;;;;15.07;3.28;;;6.80;99.90;;;;;;5027946;28;20407;-73
2022/10/11 07:06:13;;;;;;;20.67;3.22;;;6.80;99.90;;;;;;4979379;28;205510;-73
2022/10/11 07:08:40;;;;;;;18.38;3.28;;;6.90;99.90;;;;;;5027102;28;20041;-73
2022/10/11 07:11:10;;;;;;;19.17;3.38;;;6.90;99.90;;;;;;4987778;28;205331;-73
2022/10/11 07:13:37;;;;;;;18.40;3.55;;;7.00;99.90;;;;;;5030948;28;20506;-73
2022/10/11 07:16:06;;;;;;;13.23;3.20;;;7.00;99.90;;;;;;4991245;28;222189;-73
2022/10/11 07:18:33;;;;;;;18.77;3.53;;;7.10;99.90;;;;;;5037056;28;20069;-73
2022/10/11 07:21:04;;;;;;;17.77;3.30;;;7.10;99.90;;;;;;4995153;28;211632;-73
2022/10/11 07:23:30;;;;;;;19.10;3.20;;;7.20;99.90;;;;;;5032668;28;20061;-74
2022/10/11 07:25:56;;;;;;;24.55;3.60;;;7.30;99.90;;;;;;4978818;28;209085;-74
2022/10/11 07:28:23;;;;;;;23.92;3.15;;;7.40;99.90;;;;;;5028561;28;20053;-73
2022/10/11 07:30:50;;;;;;;21.63;3.30;;;7.50;99.90;;;;;;4980904;28;216664;-73
2022/10/11 07:33:16;;;;;;;20.58;3.63;;;7.60;99.90;;;;;;5029821;28;20053;-73
2022/10/11 07:35:42;;;;;;;21.65;3.60;;;7.60;99.90;;;;;;4996359;28;211321;-73
2022/10/11 07:38:09;;;;;;;15.45;3.33;;;7.70;99.90;;;;;;5030314;28;20434;-74
2022/10/11 07:40:41;;;;;;;23.60;3.58;;;7.80;99.90;;;;;;4975458;28;235719;-74
2022/10/11 07:43:09;;;;;;;20.48;3.33;;;7.90;99.90;;;;;;5022248;28;20079;-74
2022/10/11 07:45:38;;;;;;;19.23;3.55;;;8.00;99.90;;;;;;4978948;28;212271;-73
2022/10/11 07:48:05;;;;;;;20.48;3.50;;;8.00;99.90;;;;;;5031583;28;20049;-74
2022/10/11 07:50:32;;;;;;;20.20;3.15;;;8.10;99.90;;;;;;4971363;28;214359;-73
2022/10/11 07:52:58;;;;;;;20.73;2.83;;;8.20;99.90;;;;;;5028625;28;20053;-74
2022/10/11 07:55:26;;;;;;;14.90;3.03;;;8.30;99.90;;;;;;4989704;28;205661;-74
2022/10/11 07:57:56;;;;;;;21.95;3.15;;;8.30;99.90;;;;;;5027239;28;20061;-73
2022/10/11 08:00:22;;;;;;;16.15;3.00;;;8.40;99.90;;;;;;4980190;28;205494;-74
2022/10/11 08:02:48;;;;;;;18.80;3.10;;;8.40;99.90;;;;;;5004359;28;20049;-74
2022/10/11 08:05:15;;;;;;;18.58;3.03;;;8.50;99.90;;;;;;4982493;28;229434;-74
2022/10/11 08:07:41;;;;;;;18.15;2.95;;;8.60;99.90;;;;;;5020549;28;20072;-74
2022/10/11 08:10:08;;;;;;;18.73;3.10;;;8.70;99.90;;;;;;4979357;28;242641;-74
2022/10/11 08:12:34;;;;;;;21.70;3.25;;;8.80;99.90;;;;;;5038459;28;20073;-74
2022/10/11 08:15:00;;;;;;;20.63;3.38;;;8.80;99.90;;;;;;4994155;28;212258;-74
2022/10/11 08:17:27;;;;;;;17.15;3.08;;;8.90;99.90;;;;;;5029578;28;20061;-73
2022/10/11 08:19:53;;;;;;;17.90;2.88;;;9.00;99.90;;;;;;4975317;28;207015;-74
2022/10/11 08:22:19;;;;;;;17.05;2.92;;;9.10;99.90;;;;;;5028282;28;20065;-74
2022/10/11 08:24:45;;;;;;;18.30;2.67;;;9.20;99.90;;;;;;4989028;28;205841;-74
2022/10/11 08:27:11;;;;;;;18.75;2.90;;;9.20;99.90;;;;;;5007586;28;20045;-74
2022/10/11 08:29:37;;;;;;;17.70;2.78;;;9.30;99.90;;;;;;4987923;28;206449;-74
2022/10/11 08:32:04;;;;;;;18.35;2.80;;;9.40;99.90;;;;;;5018396;28;20061;-74
2022/10/11 08:34:30;;;;;;;14.27;2.35;;;9.50;99.90;;;;;;4982223;28;215388;-74
2022/10/11 08:36:56;;;;;;;18.08;2.55;;;9.60;99.90;;;;;;5008404;28;20064;-74
2022/10/11 08:39:22;;;;;;;15.48;2.92;;;9.70;99.90;;;;;;4984361;28;219409;-72
2022/10/11 08:42:00;;;;;;;27.00;2.92;;;9.70;99.90;;;;;;5030096;28;20041;-73
2022/10/11 08:45:06;;;;;;;16.10;2.40;;;9.80;99.90;;;;;;4980527;28;215570;-73
2022/10/11 08:47:45;;;;;;;18.35;2.90;;;9.90;99.90;;;;;;4978293;28;20775;-75
2022/10/11 08:50:20;;;;;;;18.05;2.92;;;10.00;99.90;;;;;;4945010;28;208538;-74
2022/10/11 08:53:05;;;;;;;18.30;2.60;;;10.10;99.90;;;;;;5009809;28;20458;-74
2022/10/11 08:55:44;;;;;;;21.73;2.78;;;10.30;99.90;;;;;;4941347;28;207678;-74
2022/10/11 08:58:15;;;;;;;18.85;2.80;;;10.40;99.90;;;;;;4996513;28;20093;-74
2022/10/11 09:00:44;;;;;;;14.18;2.40;;;10.60;99.90;;;;;;4947980;28;222181;-74
2022/10/11 09:03:35;;;;;;;16.30;2.63;;;10.70;99.90;;;;;;4982181;28;20064;-74
2022/10/11 09:06:10;;;;;;;14.88;2.65;;;10.80;99.90;;;;;;4952297;28;205451;-74
2022/10/11 09:08:36;;;;;;;17.55;2.60;;;10.90;99.90;;;;;;4988696;28;20057;-74
2022/10/11 09:11:12;;;;;;;18.17;2.83;;;11.00;99.90;;;;;;4935222;28;214044;-74
2022/10/11 09:13:54;;;;;;;17.92;2.80;;;11.10;99.90;;;;;;4998565;28;20049;-74
2022/10/11 09:16:41;;;;;;;16.52;2.50;;;11.30;99.90;;;;;;4915366;28;196406;-72
2022/10/11 09:19:28;;;;;;;18.83;2.42;;;11.40;99.90;;;;;;4992096;28;20041;-74
2022/10/11 09:22:15;;;;;;;12.63;2.17;;;11.60;99.90;;;;;;4932360;28;225055;-73
2022/10/11 09:24:53;;;;;;;14.73;2.40;;;11.70;99.90;;;;;;4976950;28;214280;-74
2022/10/11 09:27:27;;;;;;;19.50;2.60;;;11.80;99.90;;;;;;5017554;28;20184;-74
2022/10/11 09:30:02;;;;;;;18.00;2.78;;;11.90;99.90;;;;;;4969076;28;236015;-73
2022/10/11 09:32:34;;;;;;;17.58;2.47;;;12.10;99.90;;;;;;5017974;28;20073;-74
2022/10/11 09:35:11;;;;;;;17.77;2.60;;;12.20;99.90;;;;;;4970121;28;219623;-74
2022/10/11 09:38:03;;;;;;;16.50;2.53;;;12.30;99.90;;;;;;5017308;28;20124;-73
2022/10/11 09:40:51;;;;;;;20.45;3.03;;;12.40;99.90;;;;;;4930313;28;209638;-74
2022/10/11 09:43:17;;;;;;;15.77;2.78;;;12.50;99.90;;;;;;4997130;28;20061;-73
2022/10/11 09:45:45;;;;;;;18.58;2.72;;;12.50;99.90;;;;;;4969588;28;206956;-74
2022/10/11 09:48:39;;;;;;;17.02;2.63;;;12.60;99.90;;;;;;5017390;28;20426;-74
2022/10/11 09:51:11;;;;;;;18.45;2.75;;;12.70;99.90;;;;;;4967651;28;206364;-74
2022/10/11 09:54:04;;;;;;;17.83;2.70;;;12.70;99.90;;;;;;5014360;28;20053;-73
2022/10/11 09:56:32;;;;;;;20.98;3.10;;;12.90;99.90;;;;;;4955395;28;213012;-74
2022/10/11 09:59:28;;;;;;;19.00;3.10;;;13.00;99.90;;;;;;5018197;28;20056;-75
2022/10/11 10:02:15;;;;;;;16.50;2.20;;;13.10;99.90;;;;;;4961619;28;156375;-73
2022/10/11 10:04:59;;;;;;;16.05;2.45;;;13.10;99.90;;;;;;4980190;28;201051;-73
2022/10/11 10:07:26;;;;;;;19.02;3.17;;;13.20;99.90;;;;;;5019862;28;20453;-74
2022/10/11 10:09:52;;;;;;;21.52;2.92;;;13.20;99.90;;;;;;4977922;28;214029;-74
2022/10/11 10:12:36;;;;;;;17.73;2.80;;;13.30;99.90;;;;;;5001011;28;20086;-73
2022/10/11 10:15:06;;;;;;;15.40;2.63;;;13.40;99.90;;;;;;4974188;28;215160;-75
2022/10/11 10:17:34;;;;;;;16.40;2.40;;;13.60;99.90;;;;;;5012812;28;20251;-74
2022/10/11 10:20:04;;;;;;;17.35;2.47;;;13.80;99.90;;;;;;4973089;28;215715;-74
2022/10/11 10:22:33;;;;;;;19.08;3.00;;;14.00;99.90;;;;;;5020525;28;21432;-74
2022/10/11 10:25:06;;;;;;;19.20;2.97;;;14.20;99.90;;;;;;4965819;28;212465;-74
2022/10/11 10:27:32;;;;;;;16.85;2.50;;;14.40;99.90;;;;;;5009149;28;20065;-74
2022/10/11 10:30:08;;;;;;;18.00;2.63;;;14.50;99.90;;;;;;4983481;28;89346;-73
2022/10/11 10:32:49;;;;;;;19.80;3.03;;;14.70;99.90;;;;;;5007941;28;20060;-73
2022/10/11 10:35:45;;;;;;;20.60;2.28;;;14.70;99.90;;;;;;4960214;28;212128;-73
2022/10/11 10:38:17;;;;;;;16.33;2.50;;;14.70;99.90;;;;;;5015143;28;20062;-73
2022/10/11 10:40:50;;;;;;;16.88;2.53;;;14.70;99.90;;;;;;4964823;28;185051;-73
2022/10/11 10:43:27;;;;;;;19.08;2.70;;;14.80;99.90;;;;;;5022463;28;20056;-73
2022/10/11 10:46:24;;;;;;;16.92;2.78;;;15.00;99.90;;;;;;4973874;28;210108;-74
2022/10/11 10:49:16;;;;;;;20.40;2.53;;;15.20;99.90;;;;;;5014215;28;20060;-74
2022/10/11 10:52:20;;;;;;;19.17;2.72;;;15.40;99.90;;;;;;4955247;28;205830;-74
2022/10/11 10:55:22;;;;;;;18.60;2.55;;;15.90;99.90;;;;;;4973454;28;224304;-74
2022/10/11 10:57:57;;;;;;;13.32;2.13;;;16.50;99.90;;;;;;5020788;28;20048;-73
2022/10/11 11:00:23;;;;;;;16.50;2.20;;;16.40;99.90;;;;;;4964297;28;181655;-73
2022/10/11 11:03:04;;;;;;;14.75;2.20;;;16.20;99.90;;;;;;5012352;28;20057;-74
2022/10/11 11:05:36;;;;;;;15.77;2.60;;;16.80;99.90;;;;;;4966164;28;220579;-74
2022/10/11 11:08:06;;;;;;;14.98;2.47;;;17.70;99.90;;;;;;5017174;28;20057;-73
2022/10/11 11:10:52;;;;;;;14.75;2.45;;;18.50;99.90;;;;;;4965501;28;250187;-74
2022/10/11 11:13:41;;;;;;;22.77;2.40;;;19.10;99.90;;;;;;5022311;28;20068;-74
2022/10/11 11:16:23;;;;;;;12.98;2.03;;;19.60;99.90;;;;;;4968672;28;149997;-76
2022/10/11 11:19:06;;;;;;;14.98;2.78;;;18.80;99.90;;;;;;5020859;28;20045;-75
2022/10/11 11:22:00;;;;;;;16.08;2.50;;;18.20;99.90;;;;;;4974250;28;210411;-74
2022/10/11 11:24:29;;;;;;;13.70;2.20;;;18.10;99.90;;;;;;4972028;28;221276;-74
2022/10/11 11:27:07;;;;;;;12.80;2.13;;;18.80;99.90;;;;;;4979619;28;20487;-75
2022/10/11 11:29:42;;;;;;;13.63;2.17;;;18.60;99.80;;;;;;4978104;28;222129;-74
2022/10/11 11:32:35;;;;;;;17.70;2.80;;;18.00;99.90;;;;;;5003515;28;20049;-73
2022/10/11 11:35:08;;;;;;;14.32;2.33;;;17.60;99.90;;;;;;4964235;28;208975;-73
2022/10/11 11:37:39;;;;;;;17.17;2.60;;;18.50;99.90;;;;;;5013567;28;20501;-74
2022/10/11 11:40:16;;;;;;;12.00;2.08;;;19.20;99.90;;;;;;4965836;28;209271;-75
2022/10/11 11:42:55;;;;;;;15.13;2.40;;;20.00;99.80;;;;;;5029490;28;20050;-74
2022/10/11 11:45:44;;;;;;;13.40;2.20;;;20.00;99.90;;;;;;4972018;28;233123;-74
2022/10/11 11:48:19;;;;;;;12.57;2.30;;;20.10;99.90;;;;;;4999760;28;20065;-75
2022/10/11 11:50:55;;;;;;;16.00;2.72;;;20.50;99.20;;;;;;4968347;28;212917;-75
2022/10/11 11:53:45;;;;;;;12.98;2.30;;;21.00;99.00;;;;;;5021053;28;20057;-74
2022/10/11 11:56:25;;;;;;;13.10;2.40;;;21.30;99.60;;;;;;4953528;28;208071;-73
2022/10/11 11:59:05;;;;;;;10.95;2.22;;;21.60;98.70;;;;;;5023166;28;20053;-74
2022/10/11 12:02:18;;;;;;;14.27;2.45;;;22.10;98.80;;;;;;4954742;28;240016;-74
2022/10/11 12:04:47;;;;;;;13.77;2.45;;;22.40;94.50;;;;;;4988579;28;208254;-72
2022/10/11 12:07:17;;;;;;;13.80;2.78;;;22.70;96.60;;;;;;5045952;28;20052;-76
2022/10/11 12:09:49;;;;;;;15.23;2.70;;;23.00;97.30;;;;;;4980508;28;214430;-75
2022/10/11 12:12:41;;;;;;;13.98;2.42;;;23.30;97.10;;;;;;5018937;28;20065;-73
2022/10/11 12:15:08;;;;;;;14.25;2.45;;;23.60;91.30;;;;;;4978266;28;208875;-74
2022/10/11 12:17:53;;;;;;;12.77;2.50;;;23.60;95.40;;;;;;5030301;28;20553;-73
2022/10/11 12:20:33;;;;;;;12.43;2.20;;;23.80;93.40;;;;;;4973094;28;205293;-73
2022/10/11 12:23:02;;;;;;;11.52;2.20;;;23.90;93.50;;;;;;5021465;28;20049;-74
2022/10/11 12:25:34;;;;;;;12.15;2.45;;;24.20;94.50;;;;;;4985218;28;213799;-74
2022/10/11 12:28:36;;;;;;;15.23;2.47;;;24.50;94.20;;;;;;5020884;28;20080;-73
2022/10/11 12:31:05;;;;;;;13.15;2.40;;;25.00;92.30;;;;;;4967747;28;153488;-72
2022/10/11 12:33:31;;;;;;;14.50;2.25;;;25.30;92.80;;;;;;5025158;28;20418;-73
2022/10/11 12:36:30;;;;;;;10.18;2.03;;;25.10;90.30;;;;;;4973535;28;205840;-73
2022/10/11 12:39:18;;;;;;;11.23;1.98;;;24.50;75.20;;;;;;5015850;28;20053;-73
2022/10/11 12:41:47;;;;;;;13.40;2.10;;;24.60;84.40;;;;;;4959605;28;206648;-73
2022/10/11 12:44:29;;;;;;;10.73;1.98;;;24.70;76.50;;;;;;5008006;28;215883;-73
2022/10/11 12:47:00;;;;;;;10.70;1.70;;;24.60;83.50;;;;;;5018061;28;149151;-73
2022/10/11 12:49:30;;;;;;;;;;;24.40;82.60;;;;;;4980053;28;209887;-72
2022/10/11 12:52:08;;;;;;;10.98;1.90;;;24.40;74.10;;;;;;5035944;28;19917;-73
2022/10/11 12:54:55;;;;;;;13.80;2.20;;;24.50;80.80;;;;;;4973303;28;229276;-73
2022/10/11 12:57:49;;;;;;;10.80;1.98;;;24.80;83.80;;;;;;5005636;28;20045;-72
2022/10/11 13:00:20;;;;;;;9.80;1.88;;;25.00;78.40;;;;;;4983611;28;211155;-72
2022/10/11 13:02:47;;;;;;;11.50;2.08;;;25.00;77.50;;;;;;5008250;28;20406;-72